createdAt,value
2023-06-22T00:02:01.837Z,100806.09
2023-06-22T00:04:32.356Z,100804.16
2023-06-22T00:07:02.207Z,100809.47
2023-06-22T00:09:33.726Z,100816.84
2023-06-22T00:12:04.477Z,100813.66
2023-06-22T00:14:35.021Z,100805.69
2023-06-22T00:17:05.993Z,100794.13
2023-06-22T00:19:37.731Z,100799.91
2023-06-22T00:22:07.951Z,100806.84
2023-06-22T00:24:38.501Z,100814.75
2023-06-22T00:27:08.798Z,100819.34
2023-06-22T00:29:39.269Z,100799.16
2023-06-22T00:32:09.642Z,100788.13
2023-06-22T00:34:40.813Z,100780.97
2023-06-22T00:37:13.769Z,100775.91
2023-06-22T00:39:45.557Z,100786.47
2023-06-22T00:42:15.673Z,100778.69
2023-06-22T00:44:47.160Z,100764.88
2023-06-22T00:47:20.316Z,100754.19
2023-06-22T00:49:55.476Z,100743.41
2023-06-22T00:52:31.394Z,100755.16
2023-06-22T00:55:04.207Z,100756.84
2023-06-22T00:57:35.232Z,100757.41
2023-06-22T01:00:10.106Z,100765.25
2023-06-22T01:02:41.244Z,100760.28
2023-06-22T01:05:12.069Z,100767.69
2023-06-22T01:07:57.636Z,100764.34
2023-06-22T01:10:30.329Z,100764.16
2023-06-22T01:13:33.553Z,100749.97
2023-06-22T01:16:13.295Z,100770.19
2023-06-22T01:18:45.398Z,100758.09
2023-06-22T01:21:20.562Z,100762.41
2023-06-22T01:24:18.867Z,100764.69
2023-06-22T01:27:08.293Z,100758.31
2023-06-22T01:29:41.026Z,100774.72
2023-06-22T01:32:13.558Z,100775.00
2023-06-22T01:34:44.921Z,100783.38
2023-06-22T01:37:16.267Z,100780.47
2023-06-22T01:39:47.040Z,100780.69
2023-06-22T01:42:19.524Z,100793.13
2023-06-22T01:44:50.118Z,100783.28
2023-06-22T01:47:21.084Z,100765.91
2023-06-22T01:49:53.918Z,100764.88
2023-06-22T01:52:24.445Z,100770.06
2023-06-22T01:54:54.597Z,100774.16
2023-06-22T01:57:25.134Z,100768.72
2023-06-22T02:00:03.010Z,100774.78
2023-06-22T02:03:05.502Z,100769.25
2023-06-22T02:05:45.909Z,100760.16
2023-06-22T02:08:25.100Z,100750.13
2023-06-22T02:10:57.592Z,100741.47
2023-06-22T02:13:29.103Z,100737.88
2023-06-22T02:15:59.906Z,100723.75
2023-06-22T02:18:30.618Z,100717.28
2023-06-22T02:21:01.641Z,100730.03
2023-06-22T02:23:32.214Z,100737.00
2023-06-22T02:26:05.263Z,100733.06
2023-06-22T02:28:35.795Z,100723.63
2023-06-22T02:31:05.926Z,100715.19
2023-06-22T02:33:36.567Z,100724.72
2023-06-22T02:36:07.233Z,100712.44
2023-06-22T02:38:38.636Z,100711.53
2023-06-22T02:41:09.093Z,100698.25
2023-06-22T02:43:39.608Z,100696.53
2023-06-22T02:46:09.705Z,100681.50
2023-06-22T02:48:40.228Z,100676.06
2023-06-22T02:51:10.768Z,100675.88
2023-06-22T02:53:41.492Z,100679.50
2023-06-22T02:56:11.512Z,100671.53
2023-06-22T02:58:42.309Z,100656.84
2023-06-22T03:01:16.337Z,100656.44
2023-06-22T03:03:50.392Z,100652.56
2023-06-22T03:06:25.919Z,100660.69
2023-06-22T03:08:58.420Z,100654.88
2023-06-22T03:11:29.043Z,100655.84
2023-06-22T03:14:01.391Z,100655.16
2023-06-22T03:16:32.231Z,100660.97
2023-06-22T03:19:03.133Z,100664.28
2023-06-22T03:21:34.340Z,100652.66
2023-06-22T03:24:04.941Z,100649.41
2023-06-22T03:26:35.499Z,100647.97
2023-06-22T03:29:06.000Z,100633.72
2023-06-22T03:31:38.038Z,100638.78
2023-06-22T03:34:09.592Z,100635.66
2023-06-22T03:36:39.620Z,100637.03
2023-06-22T03:39:10.596Z,100623.78
2023-06-22T03:41:41.744Z,100624.25
2023-06-22T03:44:14.680Z,100613.72
2023-06-22T03:46:46.290Z,100598.47
2023-06-22T03:49:16.812Z,100584.28
2023-06-22T03:51:47.360Z,100582.41
2023-06-22T03:54:17.805Z,100589.44
2023-06-22T03:56:47.949Z,100589.06
2023-06-22T03:59:18.534Z,100569.59
2023-06-22T04:01:49.109Z,100573.00
2023-06-22T04:04:20.862Z,100569.16
2023-06-22T04:06:51.104Z,100571.88
2023-06-22T04:09:21.623Z,100569.09
2023-06-22T04:11:51.881Z,100562.69
2023-06-22T04:14:22.432Z,100562.06
2023-06-22T04:16:52.530Z,100551.13
2023-06-22T04:19:22.992Z,100553.25
2023-06-22T04:21:52.932Z,100551.13
2023-06-22T04:24:23.388Z,100546.38
2023-06-22T04:26:57.040Z,100548.03
2023-06-22T04:29:30.996Z,100525.94
2023-06-22T04:32:05.272Z,100518.50
2023-06-22T04:34:35.799Z,100505.53
2023-06-22T04:37:06.143Z,100512.06
2023-06-22T04:39:36.642Z,100508.34
2023-06-22T04:42:07.087Z,100497.31
2023-06-22T04:44:37.661Z,100496.91
2023-06-22T04:47:10.560Z,100505.66
2023-06-22T04:49:42.474Z,100491.25
2023-06-22T04:52:14.540Z,100486.41
2023-06-22T04:54:49.959Z,100480.66
2023-06-22T04:57:20.109Z,100490.47
2023-06-22T04:59:50.603Z,100498.06
2023-06-22T05:02:20.978Z,100488.81
2023-06-22T05:04:53.556Z,100480.63
2023-06-22T05:07:27.624Z,100478.50
2023-06-22T05:09:58.092Z,100470.56
2023-06-22T05:12:28.160Z,100463.84
2023-06-22T05:14:58.407Z,100473.81
2023-06-22T05:17:29.011Z,100476.44
2023-06-22T05:19:59.257Z,100465.59
2023-06-22T05:22:29.748Z,100463.69
2023-06-22T05:24:59.770Z,100474.19
2023-06-22T05:27:30.361Z,100469.09
2023-06-22T05:30:00.363Z,100459.69
2023-06-22T05:32:30.969Z,100459.22
2023-06-22T05:35:01.085Z,100451.78
2023-06-22T05:37:34.372Z,100463.34
2023-06-22T05:40:04.908Z,100460.16
2023-06-22T05:42:35.763Z,100460.66
2023-06-22T05:45:06.364Z,100448.59
2023-06-22T05:47:36.960Z,100452.31
2023-06-22T05:50:12.486Z,100455.31
2023-06-22T05:52:44.151Z,100450.00
2023-06-22T05:55:14.217Z,100449.84
2023-06-22T05:57:44.764Z,100451.97
2023-06-22T06:00:15.882Z,100451.47
2023-06-22T06:02:46.513Z,100457.84
2023-06-22T06:05:16.722Z,100453.13
2023-06-22T06:07:48.425Z,100457.56
2023-06-22T06:10:20.742Z,100456.88
2023-06-22T06:12:51.305Z,100459.00
2023-06-22T06:15:21.467Z,100451.88
2023-06-22T06:17:55.789Z,100446.91
2023-06-22T06:20:28.613Z,100442.09
2023-06-22T06:22:59.644Z,100450.84
2023-06-22T06:25:29.634Z,100447.44
2023-06-22T06:28:00.213Z,100451.72
2023-06-22T06:30:30.780Z,100454.38
2023-06-22T06:33:01.528Z,100454.38
2023-06-22T06:35:31.968Z,100446.72
2023-06-22T06:38:02.878Z,100439.06
2023-06-22T06:40:34.302Z,100432.50
2023-06-22T06:43:05.905Z,100430.53
2023-06-22T06:45:36.904Z,100441.22
2023-06-22T06:48:07.717Z,100441.75
2023-06-22T06:50:37.886Z,100438.72
2023-06-22T06:53:08.577Z,100440.47
2023-06-22T06:55:38.767Z,100439.94
2023-06-22T06:58:10.633Z,100426.78
2023-06-22T07:00:40.808Z,100432.63
2023-06-22T07:03:11.608Z,100423.91
2023-06-22T07:05:41.725Z,100423.38
2023-06-22T07:08:12.841Z,100436.03
2023-06-22T07:10:42.899Z,100431.06
2023-06-22T07:13:13.509Z,100439.59
2023-06-22T07:15:44.412Z,100438.91
2023-06-22T07:18:15.013Z,100428.03
2023-06-22T07:20:45.220Z,100450.06
2023-06-22T07:23:15.732Z,100444.63
2023-06-22T07:25:45.822Z,100452.97
2023-06-22T07:28:16.751Z,100449.41
2023-06-22T07:30:46.826Z,100451.53
2023-06-22T07:33:17.364Z,100452.94
2023-06-22T07:35:49.810Z,100452.75
2023-06-22T07:38:19.903Z,100460.91
2023-06-22T07:40:53.111Z,100466.88
2023-06-22T07:43:24.475Z,100463.31
2023-06-22T07:45:54.669Z,100465.03
2023-06-22T07:48:24.779Z,100466.78
2023-06-22T07:50:55.738Z,100471.41
2023-06-22T07:53:26.132Z,100469.28
2023-06-22T07:55:56.667Z,100460.75
2023-06-22T07:58:26.677Z,100470.47
2023-06-22T08:00:57.284Z,100467.94
2023-06-22T08:03:27.599Z,100467.50
2023-06-22T08:05:58.366Z,100471.72
2023-06-22T08:08:28.495Z,100476.69
2023-06-22T08:10:59.073Z,100488.50
2023-06-22T08:13:29.198Z,100494.38
2023-06-22T08:15:59.766Z,100495.31
2023-06-22T08:18:30.037Z,100496.06
2023-06-22T08:21:00.983Z,100504.13
2023-06-22T08:23:31.889Z,100501.78
2023-06-22T08:26:02.476Z,100510.53
2023-06-22T08:28:32.532Z,100503.06
2023-06-22T08:31:04.697Z,100506.59
2023-06-22T08:33:34.991Z,100509.06
2023-06-22T08:36:08.298Z,100520.09
2023-06-22T08:38:38.374Z,100525.28
2023-06-22T08:41:11.937Z,100527.38
2023-06-22T08:43:42.200Z,100538.03
2023-06-22T08:46:13.347Z,100530.59
2023-06-22T08:48:43.469Z,100532.88
2023-06-22T08:51:14.127Z,100535.53
2023-06-22T08:53:45.344Z,100538.59
2023-06-22T08:56:15.879Z,100541.75
2023-06-22T08:58:46.065Z,100540.63
2023-06-22T09:01:17.605Z,100540.75
2023-06-22T09:03:56.737Z,100547.91
2023-06-22T09:06:27.440Z,100551.22
2023-06-22T09:08:57.520Z,100554.72
2023-06-22T09:11:28.514Z,100562.09
2023-06-22T09:13:58.746Z,100560.28
2023-06-22T09:16:29.308Z,100573.00
2023-06-22T09:18:59.562Z,100576.66
2023-06-22T09:21:31.318Z,100576.66
2023-06-22T09:24:02.668Z,100579.41
2023-06-22T09:26:33.253Z,100582.88
2023-06-22T09:29:03.489Z,100577.03
2023-06-22T09:31:34.072Z,100578.47
2023-06-22T09:34:04.273Z,100581.84
2023-06-22T09:36:34.888Z,100595.53
2023-06-22T09:39:08.610Z,100584.19
2023-06-22T09:41:39.861Z,100586.84
2023-06-22T09:44:10.721Z,100591.25
2023-06-22T09:46:41.180Z,100594.84
2023-06-22T09:49:11.244Z,100592.41
2023-06-22T09:51:41.966Z,100596.41
2023-06-22T09:54:12.095Z,100598.22
2023-06-22T09:56:42.628Z,100604.59
2023-06-22T09:59:18.512Z,100601.03
2023-06-22T10:01:49.646Z,100603.19
2023-06-22T10:04:20.015Z,100607.38
2023-06-22T10:06:50.679Z,100614.34
2023-06-22T10:09:20.800Z,100626.63
2023-06-22T10:11:51.434Z,100627.19
2023-06-22T10:14:21.850Z,100628.03
2023-06-22T10:16:53.660Z,100638.66
2023-06-22T10:19:23.755Z,100630.91
2023-06-22T10:21:54.380Z,100650.75
2023-06-22T10:24:24.462Z,100649.28
2023-06-22T10:26:55.001Z,100646.63
2023-06-22T10:29:25.163Z,100665.72
2023-06-22T10:31:55.738Z,100648.91
2023-06-22T10:34:25.892Z,100660.19
2023-06-22T10:36:56.493Z,100659.47
2023-06-22T10:39:26.513Z,100665.72
2023-06-22T10:41:58.265Z,100670.19
2023-06-22T10:44:28.379Z,100668.16
2023-06-22T10:46:59.946Z,100679.50
2023-06-22T10:49:30.275Z,100680.41
2023-06-22T10:52:00.883Z,100681.13
2023-06-22T10:54:31.316Z,100691.38
2023-06-22T10:57:05.002Z,100688.72
2023-06-22T10:59:35.197Z,100690.34
2023-06-22T11:02:05.755Z,100691.59
2023-06-22T11:04:36.598Z,100701.41
2023-06-22T11:07:07.439Z,100701.56
2023-06-22T11:09:37.491Z,100707.00
2023-06-22T11:12:08.809Z,100707.41
2023-06-22T11:14:38.841Z,100717.63
2023-06-22T11:17:09.356Z,100719.06
2023-06-22T11:19:39.565Z,100724.78
2023-06-22T11:22:10.051Z,100723.56
2023-06-22T11:24:40.118Z,100719.06
2023-06-22T11:27:10.659Z,100720.72
2023-06-22T11:29:41.838Z,100720.38
2023-06-22T11:32:13.145Z,100718.16
2023-06-22T11:34:44.990Z,100722.41
2023-06-22T11:37:15.478Z,100732.28
2023-06-22T11:39:53.228Z,100735.91
2023-06-22T11:42:30.657Z,100746.53
2023-06-22T11:45:00.727Z,100748.56
2023-06-22T11:47:31.831Z,100751.19
2023-06-22T11:50:01.972Z,100757.97
2023-06-22T11:52:32.462Z,100762.56
2023-06-22T11:55:05.078Z,100766.78
2023-06-22T11:57:39.848Z,100772.03
2023-06-22T12:00:20.089Z,100781.88
2023-06-22T12:02:50.758Z,100781.25
2023-06-22T12:05:24.588Z,100787.19
2023-06-22T12:07:58.647Z,100786.91
2023-06-22T12:10:31.218Z,100777.03
2023-06-22T12:13:02.357Z,100781.53
2023-06-22T12:15:32.551Z,100779.50
2023-06-22T12:18:03.752Z,100784.09
2023-06-22T12:20:34.158Z,100772.44
2023-06-22T12:23:04.869Z,100775.81
2023-06-22T12:25:35.082Z,100786.13
2023-06-22T12:28:06.914Z,100787.38
2023-06-22T12:30:37.158Z,100786.69
2023-06-22T12:33:10.627Z,100797.84
2023-06-22T12:35:40.920Z,100797.19
2023-06-22T12:38:11.520Z,100816.63
2023-06-22T12:40:41.534Z,100817.91
2023-06-22T12:43:12.826Z,100813.06
2023-06-22T12:45:44.050Z,100819.94
2023-06-22T12:48:15.213Z,100825.03
2023-06-22T12:50:45.522Z,100817.75
2023-06-22T12:53:19.873Z,100810.81
2023-06-22T12:55:50.381Z,100811.16
2023-06-22T12:58:21.974Z,100808.25
2023-06-22T13:00:52.300Z,100806.38
2023-06-22T13:03:22.935Z,100807.84
2023-06-22T13:05:53.240Z,100812.81
2023-06-22T13:08:28.321Z,100814.66
2023-06-22T13:11:14.024Z,100827.44
2023-06-22T13:13:44.721Z,100827.25
2023-06-22T13:16:15.252Z,100820.00
2023-06-22T13:18:45.781Z,100822.75
2023-06-22T13:21:16.612Z,100830.59
2023-06-22T13:23:47.047Z,100838.97
2023-06-22T13:26:17.293Z,100843.13
2023-06-22T13:28:47.891Z,100841.66
2023-06-22T13:31:18.054Z,100837.72
2023-06-22T13:33:50.100Z,100832.56
2023-06-22T13:36:20.265Z,100840.50
2023-06-22T13:38:50.848Z,100832.81
2023-06-22T13:41:21.148Z,100829.44
2023-06-22T13:43:51.748Z,100827.00
2023-06-22T13:46:21.829Z,100837.00
2023-06-22T13:48:55.157Z,100835.78
2023-06-22T13:51:27.054Z,100832.06
2023-06-22T13:53:57.493Z,100832.63
2023-06-22T13:56:27.443Z,100822.28
2023-06-22T13:58:57.925Z,100817.09
2023-06-22T14:01:28.108Z,100824.94
2023-06-22T14:03:58.649Z,100812.31
2023-06-22T14:06:28.997Z,100814.56
2023-06-22T14:08:59.520Z,100811.16
2023-06-22T14:11:29.644Z,100799.03
2023-06-22T14:14:00.172Z,100810.47
2023-06-22T14:16:30.552Z,100817.03
2023-06-22T14:19:01.147Z,100803.84
2023-06-22T14:21:31.247Z,100807.00
2023-06-22T14:24:01.786Z,100815.88
2023-06-22T14:26:31.688Z,100809.72
2023-06-22T14:29:02.123Z,100817.09
2023-06-22T14:31:32.248Z,100811.09
2023-06-22T14:34:05.652Z,100814.38
2023-06-22T14:36:35.731Z,100819.94
2023-06-22T14:39:05.762Z,100815.78
2023-06-22T14:41:36.317Z,100823.25
2023-06-22T14:44:06.549Z,100817.78
2023-06-22T14:46:37.990Z,100824.09
2023-06-22T14:49:08.195Z,100827.88
2023-06-22T14:51:38.824Z,100820.06
2023-06-22T14:54:09.116Z,100826.50
2023-06-22T14:56:39.643Z,100819.91
2023-06-22T14:59:10.886Z,100826.09
2023-06-22T15:01:43.861Z,100813.63
2023-06-22T15:04:14.993Z,100810.44
2023-06-22T15:06:46.686Z,100815.75
2023-06-22T15:09:16.868Z,100819.72
2023-06-22T15:11:47.564Z,100815.44
2023-06-22T15:14:17.665Z,100813.31
2023-06-22T15:16:48.171Z,100806.19
2023-06-22T15:19:18.499Z,100805.00
2023-06-22T15:21:48.958Z,100796.75
2023-06-22T15:24:18.836Z,100801.19
2023-06-22T15:26:49.538Z,100785.34
2023-06-22T15:29:19.709Z,100777.13
2023-06-22T15:31:50.321Z,100780.09
2023-06-22T15:34:20.553Z,100781.13
2023-06-22T15:36:52.448Z,100769.47
2023-06-22T15:39:25.386Z,100772.53
2023-06-22T15:41:56.644Z,100766.06
2023-06-22T15:44:27.403Z,100761.25
2023-06-22T15:46:58.791Z,100756.28
2023-06-22T15:49:29.836Z,100740.72
2023-06-22T15:52:00.324Z,100738.88
2023-06-22T15:54:30.410Z,100721.28
2023-06-22T15:57:00.926Z,100718.41
2023-06-22T15:59:30.990Z,100724.47
2023-06-22T16:02:00.910Z,100726.53
2023-06-22T16:04:31.484Z,100723.84
2023-06-22T16:07:02.129Z,100721.25
2023-06-22T16:09:33.141Z,100717.81
2023-06-22T16:12:04.037Z,100710.47
2023-06-22T16:14:34.714Z,100704.50
2023-06-22T16:17:04.900Z,100710.00
2023-06-22T16:19:35.535Z,100698.88
2023-06-22T16:22:05.936Z,100697.88
2023-06-22T16:24:36.592Z,100686.81
2023-06-22T16:27:06.922Z,100692.75
2023-06-22T16:29:38.771Z,100700.00
2023-06-22T16:32:10.249Z,100700.34
2023-06-22T16:34:40.811Z,100697.78
2023-06-22T16:37:10.929Z,100696.78
2023-06-22T16:39:41.616Z,100694.81
2023-06-22T16:42:12.424Z,100691.03
2023-06-22T16:44:42.923Z,100694.41
2023-06-22T16:47:13.096Z,100699.47
2023-06-22T16:49:43.628Z,100697.91
2023-06-22T16:52:13.706Z,100696.66
2023-06-22T16:57:26.247Z,100690.50
2023-06-22T16:59:56.846Z,100687.44
2023-06-22T17:02:28.418Z,100681.88
2023-06-22T17:04:59.064Z,100672.81
2023-06-22T17:07:30.388Z,100677.63
2023-06-22T17:10:00.868Z,100676.84
2023-06-22T17:12:32.073Z,100681.28
2023-06-22T17:15:05.749Z,100685.00
2023-06-22T17:17:37.638Z,100679.63
2023-06-22T17:20:09.635Z,100674.31
2023-06-22T17:22:40.809Z,100687.69
2023-06-22T17:25:16.687Z,100681.44
2023-06-22T17:27:51.462Z,100678.47
2023-06-22T17:30:23.100Z,100675.53
2023-06-22T17:32:53.240Z,100674.25
2023-06-22T17:35:24.286Z,100664.75
2023-06-22T17:37:57.097Z,100666.56
2023-06-22T17:40:29.298Z,100662.59
2023-06-22T17:43:12.103Z,100674.81
2023-06-22T17:45:50.633Z,100665.66
2023-06-22T17:48:24.619Z,100654.78
2023-06-22T17:50:55.290Z,100650.25
2023-06-22T17:53:30.170Z,100636.47
2023-06-22T17:56:03.562Z,100637.47
2023-06-22T17:58:33.747Z,100648.81
2023-06-22T18:01:04.355Z,100649.72
2023-06-22T18:03:38.526Z,100651.69
2023-06-22T18:06:09.357Z,100640.75
2023-06-22T18:08:40.607Z,100657.19
2023-06-22T18:11:12.399Z,100651.06
2023-06-22T18:13:47.030Z,100649.31
2023-06-22T18:16:17.724Z,100651.34
2023-06-22T18:18:48.573Z,100657.09
2023-06-22T18:21:19.961Z,100651.72
2023-06-22T18:23:53.715Z,100657.84
2023-06-22T18:26:26.194Z,100660.09
2023-06-22T18:28:58.593Z,100662.69
2023-06-22T18:31:29.152Z,100666.97
2023-06-22T18:34:00.946Z,100672.91
2023-06-22T18:36:35.098Z,100669.50
2023-06-22T18:39:09.221Z,100670.25
2023-06-22T18:41:45.535Z,100673.81
2023-06-22T18:44:24.216Z,100679.03
2023-06-22T18:46:59.827Z,100674.66
2023-06-22T18:49:35.857Z,100665.03
2023-06-22T18:52:13.624Z,100667.50
2023-06-22T18:54:52.836Z,100673.75
2023-06-22T18:57:30.166Z,100680.28
2023-06-22T19:00:00.238Z,100685.84
2023-06-22T19:02:38.496Z,100690.16
2023-06-22T19:05:17.652Z,100691.84
2023-06-22T19:07:54.623Z,100683.78
2023-06-22T19:10:26.438Z,100685.19
2023-06-22T19:12:58.396Z,100693.03
2023-06-22T19:15:37.728Z,100692.50
2023-06-22T19:18:32.910Z,100695.31
2023-06-22T19:21:23.480Z,100701.03
2023-06-22T19:23:54.253Z,100705.22
2023-06-22T19:26:24.446Z,100697.09
2023-06-22T19:28:59.268Z,100699.59
2023-06-22T19:31:30.438Z,100702.53
2023-06-22T19:34:10.363Z,100699.19
2023-06-22T19:36:40.673Z,100697.22
2023-06-22T19:39:11.158Z,100698.91
2023-06-22T19:41:42.055Z,100692.50
2023-06-22T19:44:16.262Z,100695.19
2023-06-22T19:46:48.154Z,100696.44
2023-06-22T19:49:19.675Z,100695.00
2023-06-22T19:51:49.778Z,100702.16
2023-06-22T19:54:19.719Z,100697.56
2023-06-22T19:56:52.023Z,100698.44
2023-06-22T19:59:26.246Z,100700.31
2023-06-22T20:01:56.824Z,100702.44
2023-06-22T20:04:26.929Z,100690.50
2023-06-22T20:07:08.826Z,100689.81
2023-06-22T20:09:43.182Z,100681.13
2023-06-22T20:12:32.174Z,100683.44
2023-06-22T20:15:24.767Z,100670.47
2023-06-22T20:18:11.021Z,100677.38
2023-06-22T20:20:46.133Z,100693.56
2023-06-22T20:23:36.773Z,100694.94
2023-06-22T20:26:11.318Z,100702.06
2023-06-22T20:28:41.952Z,100713.31
2023-06-22T20:31:14.653Z,100717.31
2023-06-22T20:33:45.303Z,100718.91
2023-06-22T20:36:18.847Z,100707.50
2023-06-22T20:38:49.382Z,100723.88
2023-06-22T20:41:19.517Z,100738.56
2023-06-22T20:43:55.856Z,100741.94
2023-06-22T20:46:25.907Z,100739.81
2023-06-22T20:48:55.811Z,100734.63
2023-06-22T20:51:26.503Z,100740.00
2023-06-22T20:53:57.727Z,100749.28
2023-06-22T20:56:28.208Z,100756.41
2023-06-22T20:58:58.345Z,100747.94
2023-06-22T21:01:35.158Z,100750.59
2023-06-22T21:04:05.417Z,100738.44
2023-06-22T21:06:35.927Z,100747.09
2023-06-22T21:09:05.816Z,100743.91
2023-06-22T21:11:36.298Z,100747.22
2023-06-22T21:14:18.791Z,100747.03
2023-06-22T21:16:50.739Z,100746.16
2023-06-22T21:19:20.764Z,100755.03
2023-06-22T21:21:51.419Z,100753.56
2023-06-22T21:24:21.688Z,100753.84
2023-06-22T21:26:52.241Z,100757.41
2023-06-22T21:29:23.079Z,100761.34
2023-06-22T21:31:53.690Z,100769.75
2023-06-22T21:34:24.988Z,100773.50
2023-06-22T21:36:57.266Z,100774.72
2023-06-22T21:39:27.401Z,100782.56
2023-06-22T21:41:57.881Z,100788.53
2023-06-22T21:44:28.029Z,100784.59
2023-06-22T21:46:58.515Z,100778.53
2023-06-22T21:49:29.387Z,100783.94
2023-06-22T21:52:00.633Z,100793.22
2023-06-22T21:54:31.058Z,100798.38
2023-06-22T21:57:01.454Z,100793.75
2023-06-22T21:59:32.634Z,100797.06
2023-06-22T22:02:03.444Z,100791.44
2023-06-22T22:04:33.570Z,100778.75
2023-06-22T22:07:07.009Z,100787.28
2023-06-22T22:09:37.120Z,100780.91
2023-06-22T22:12:07.453Z,100775.28
2023-06-22T22:14:43.261Z,100781.06
2023-06-22T22:17:14.217Z,100797.22
2023-06-22T22:19:44.749Z,100809.00
2023-06-22T22:22:15.984Z,100828.00
2023-06-22T22:24:46.543Z,100831.72
2023-06-22T22:27:16.829Z,100832.75
2023-06-22T22:29:47.351Z,100841.75
2023-06-22T22:32:17.460Z,100831.50
2023-06-22T22:34:47.968Z,100833.56
2023-06-22T22:37:18.085Z,100834.06
2023-06-22T22:39:50.285Z,100846.75
2023-06-22T22:42:20.641Z,100851.97
2023-06-22T22:44:51.117Z,100851.34
2023-06-22T22:47:21.225Z,100856.25
2023-06-22T22:49:51.808Z,100850.75
2023-06-22T22:52:21.923Z,100859.75
2023-06-22T22:54:52.401Z,100863.41
2023-06-22T22:57:22.493Z,100862.28
2023-06-22T22:59:52.918Z,100859.34
2023-06-22T23:02:26.195Z,100870.25
2023-06-22T23:04:58.499Z,100873.72
2023-06-22T23:07:30.138Z,100876.13
2023-06-22T23:10:01.164Z,100870.81
2023-06-22T23:12:31.254Z,100862.41
2023-06-22T23:15:02.681Z,100866.28
2023-06-22T23:17:32.790Z,100864.03
2023-06-22T23:20:04.786Z,100855.31
2023-06-22T23:22:37.142Z,100861.44
2023-06-22T23:25:10.542Z,100861.56
2023-06-22T23:27:40.748Z,100856.84
2023-06-22T23:30:14.293Z,100851.88
2023-06-22T23:32:44.430Z,100855.91
2023-06-22T23:35:15.094Z,100846.84
2023-06-22T23:37:45.528Z,100852.78
2023-06-22T23:40:19.093Z,100860.84
2023-06-22T23:42:50.257Z,100848.88
2023-06-22T23:45:22.018Z,100847.66
2023-06-22T23:47:52.640Z,100853.03
2023-06-22T23:50:23.308Z,100851.63
2023-06-22T23:52:53.421Z,100851.31
2023-06-22T23:55:26.428Z,100844.66
2023-06-22T23:57:59.301Z,100836.25
